Time;durP1;ratioP1;P1;durP2;ratioP2;P2;SDS_P1;SDS_P2;PMS_P1;PMS_P2;Temp;Humidity;BMP_temperature;BMP_pressure;BME280_temperature;BME280_humidity;BME280_pressure;Samples;Min_cycle;Max_cycle;Signal;HPM_P1;HPM_P2
2023/01/18 00:00:49;;;;;;;;;;;2.30;99.90;;;;;;5057279;28;19920;-47
2023/01/18 00:03:16;;;;;;;;;;;2.20;99.90;;;;;;5057284;28;19924;-48
2023/01/18 00:05:43;;;;;;;;;;;2.10;99.90;;;;;;5057440;28;19927;-52
2023/01/18 00:08:11;;;;;;;;;;;2.30;99.90;;;;;;5056953;28;19928;-50
2023/01/18 00:10:39;;;;;;;;;;;2.40;99.90;;;;;;5056805;28;19927;-52
2023/01/18 00:13:06;;;;;;;;;;;2.70;99.90;;;;;;5056434;28;19931;-49
2023/01/18 00:15:33;;;;;;;;;;;2.60;99.90;;;;;;5057667;28;19926;-51
2023/01/18 00:18:00;;;;;;;;;;;2.40;99.90;;;;;;5057069;28;20297;-49
2023/01/18 00:20:28;;;;;;;;;;;2.50;99.90;;;;;;5057625;28;19922;-51
2023/01/18 00:22:55;;;;;;;;;;;2.60;99.90;;;;;;5056784;28;20027;-50
2023/01/18 00:25:23;;;;;;;;;;;2.80;99.90;;;;;;5056454;28;20209;-53
2023/01/18 00:27:52;;;;;;;;;;;2.70;99.90;;;;;;5057196;28;19921;-48
2023/01/18 00:30:21;;;;;;;;;;;2.60;99.90;;;;;;5057117;28;20384;-49
2023/01/18 00:32:47;;;;;;;;;;;2.60;99.90;;;;;;5056762;28;19930;-51
2023/01/18 00:35:14;;;;;;;;;;;2.70;99.90;;;;;;5057126;28;20055;-50
2023/01/18 00:37:41;;;;;;;;;;;2.60;99.90;;;;;;5056727;28;19921;-49
2023/01/18 00:40:09;;;;;;;;;;;2.50;99.90;;;;;;5056669;28;19931;-50
2023/01/18 00:45:21;;;;;;;;;;;2.70;99.90;;;;;;5056631;28;19923;-51
2023/01/18 00:47:48;;;;;;;;;;;2.80;99.90;;;;;;5056752;28;20218;-50
2023/01/18 00:50:15;;;;;;;;;;;2.60;99.90;;;;;;5056814;28;20220;-52
2023/01/18 00:52:45;;;;;;;;;;;2.50;99.90;;;;;;5055274;28;19999;-49
2023/01/18 00:55:12;;;;;;;;;;;2.50;99.90;;;;;;5056428;28;20351;-47
2023/01/18 00:57:39;;;;;;;;;;;2.40;99.90;;;;;;5057113;28;19929;-50
2023/01/18 01:00:08;;;;;;;;;;;2.50;99.90;;;;;;5056415;28;19927;-51
2023/01/18 01:02:38;;;;;;;;;;;2.30;99.90;;;;;;5054178;28;19920;-51
2023/01/18 01:07:50;;;;;;;;;;;2.30;99.90;;;;;;5055486;28;19928;-50
2023/01/18 01:10:17;;;;;;;;;;;2.50;99.90;;;;;;5055359;28;19921;-53
2023/01/18 01:26:26;;;;;;;;;;;2.30;99.90;;;;;;5056117;28;19923;-54
2023/01/18 01:28:53;;;;;;;;;;;2.30;99.90;;;;;;5055614;28;19921;-52
2023/01/18 01:31:20;;;;;;;;;;;2.20;99.90;;;;;;5055598;28;19964;-52
2023/01/18 01:33:49;;;;;;;;;;;2.20;99.90;;;;;;5056192;28;19924;-54
2023/01/18 01:36:16;;;;;;;;;;;2.30;99.90;;;;;;5055873;28;20300;-54
2023/01/18 01:38:43;;;;;;;;;;;2.30;99.90;;;;;;5055279;28;19921;-54
2023/01/18 01:41:13;;;;;;;;;;;2.30;99.90;;;;;;5056137;28;19921;-48
2023/01/18 01:43:42;;;;;;;;;;;2.40;99.90;;;;;;5055766;28;19920;-54
2023/01/18 01:46:21;;;;;;;;;;;2.40;99.90;;;;;;5056340;28;19960;-54
2023/01/18 01:48:49;;;;;;;;;;;2.60;99.90;;;;;;5055939;28;19921;-50
2023/01/18 01:51:18;;;;;;;;;;;2.70;99.90;;;;;;5056081;28;19927;-51
2023/01/18 01:53:46;;;;;;;;;;;2.50;99.90;;;;;;5055899;28;20208;-49
2023/01/18 01:56:13;;;;;;;;;;;2.30;99.90;;;;;;5055999;28;20060;-51
2023/01/18 01:58:40;;;;;;;;;;;2.10;99.90;;;;;;5055475;28;19921;-52
2023/01/18 02:01:08;;;;;;;;;;;2.10;99.90;;;;;;5055201;28;20315;-48
2023/01/18 02:03:36;;;;;;;;;;;2.20;99.90;;;;;;5054809;28;19927;-50
2023/01/18 02:06:08;;;;;;;;;;;2.30;99.90;;;;;;5055844;28;19974;-49
2023/01/18 02:08:35;;;;;;;;;;;2.20;99.90;;;;;;5055531;28;20315;-50
2023/01/18 02:11:02;;;;;;;;;;;2.10;99.90;;;;;;5053368;28;19947;-49
2023/01/18 02:13:29;;;;;;;;;;;2.00;99.90;;;;;;5054099;28;20204;-50
2023/01/18 02:16:01;;;;;;;;;;;2.20;99.90;;;;;;5058294;28;19921;-53
2023/01/18 02:18:30;;;;;;;;;;;2.30;99.90;;;;;;5058103;28;20364;-53
2023/01/18 02:21:11;;;;;;;;;;;2.20;99.90;;;;;;5059408;28;20179;-53
2023/01/18 02:23:54;;;;;;;;;;;2.30;99.90;;;;;;5059758;28;19924;-49
2023/01/18 02:26:41;;;;;;;;;;;2.40;99.90;;;;;;5059313;28;20325;-52
2023/01/18 02:29:13;;;;;;;;;;;2.30;99.90;;;;;;5059053;28;19951;-51
2023/01/18 02:31:45;;;;;;;;;;;2.20;99.90;;;;;;5059051;28;19921;-53
2023/01/18 02:34:16;;;;;;;;;;;2.00;99.90;;;;;;5059594;28;19924;-47
2023/01/18 02:36:47;;;;;;;;;;;2.10;99.90;;;;;;5059475;28;19925;-51
2023/01/18 02:39:22;;;;;;;;;;;2.30;99.90;;;;;;5059271;28;19954;-52
2023/01/18 02:47:26;;;;;;;;;;;2.20;99.90;;;;;;5057826;28;20244;-51
2023/01/18 02:49:53;;;;;;;;;;;2.30;99.90;;;;;;5058496;28;19921;-52
2023/01/18 02:52:37;;;;;;;;;;;2.40;99.90;;;;;;5058095;28;20330;-52
2023/01/18 02:55:05;;;;;;;;;;;2.60;99.90;;;;;;5058102;28;19920;-52
2023/01/18 02:57:33;;;;;;;;;;;2.70;99.90;;;;;;5059079;28;19927;-52
2023/01/18 03:00:03;;;;;;;;;;;2.50;99.90;;;;;;5058207;28;19920;-49
2023/01/18 03:02:30;;;;;;;;;;;2.40;99.90;;;;;;5058814;28;19920;-51
2023/01/18 03:04:57;;;;;;;;;;;2.40;99.90;;;;;;5058685;28;19935;-54
2023/01/18 03:07:25;;;;;;;;;;;2.20;99.90;;;;;;5058857;28;20320;-47
2023/01/18 03:09:52;;;;;;;;;;;2.20;99.90;;;;;;5058614;28;20008;-54
2023/01/18 03:12:23;;;;;;;;;;;2.30;99.90;;;;;;5058368;28;19920;-48
2023/01/18 03:14:55;;;;;;;;;;;2.50;99.90;;;;;;5058070;28;19927;-54
2023/01/18 03:17:26;;;;;;;;;;;2.30;99.90;;;;;;5057042;28;19921;-49
2023/01/18 03:20:07;;;;;;;;;;;2.00;99.90;;;;;;5058485;28;20007;-51
2023/01/18 03:25:21;;;;;;;;;;;2.10;99.90;;;;;;5055868;28;19924;-50
2023/01/18 03:33:43;;;;;;;;;;;2.40;99.90;;;;;;5057844;28;20232;-51
2023/01/18 03:36:12;;;;;;;;;;;2.50;99.90;;;;;;5057830;28;20242;-54
2023/01/18 03:38:41;;;;;;;;;;;2.50;99.90;;;;;;5057740;28;20468;-55
2023/01/18 03:41:08;;;;;;;;;;;2.30;99.90;;;;;;5057622;28;19921;-53
2023/01/18 03:43:36;;;;;;;;;;;2.40;99.90;;;;;;5058218;28;19935;-54
2023/01/18 03:46:03;;;;;;;;;;;2.40;99.90;;;;;;5058133;28;19921;-51
2023/01/18 03:48:32;;;;;;;;;;;2.30;99.90;;;;;;5058037;28;19920;-54
2023/01/18 03:51:02;;;;;;;;;;;2.50;99.90;;;;;;5057967;28;19983;-54
2023/01/18 03:53:32;;;;;;;;;;;2.30;99.90;;;;;;5057572;28;19920;-53
2023/01/18 03:56:01;;;;;;;;;;;2.40;99.90;;;;;;5057469;28;19926;-53
2023/01/18 03:58:32;;;;;;;;;;;2.40;99.90;;;;;;5057669;28;20313;-50
2023/01/18 04:01:02;;;;;;;;;;;2.30;99.90;;;;;;5057613;28;20418;-52
2023/01/18 04:03:30;;;;;;;;;;;2.30;99.90;;;;;;5057819;28;20015;-53
2023/01/18 04:05:59;;;;;;;;;;;2.40;99.90;;;;;;5057474;28;19927;-51
2023/01/18 04:08:25;;;;;;;;;;;2.30;99.90;;;;;;5057601;28;20232;-49
2023/01/18 04:10:52;;;;;;;;;;;2.20;99.90;;;;;;5057044;28;20228;-52
2023/01/18 04:13:19;;;;;;;;;;;2.30;99.90;;;;;;5057732;28;19920;-54
2023/01/18 04:15:48;;;;;;;;;;;2.20;99.90;;;;;;5057542;28;19924;-53
2023/01/18 04:18:15;;;;;;;;;;;2.20;99.90;;;;;;5056518;28;20015;-53
2023/01/18 04:20:41;;;;;;;;;;;2.30;99.90;;;;;;5056300;28;19921;-47
2023/01/18 04:23:10;;;;;;;;;;;2.30;99.90;;;;;;5056556;28;19952;-51
2023/01/18 04:25:39;;;;;;;;;;;2.40;99.90;;;;;;5055778;28;20251;-51
2023/01/18 04:28:06;;;;;;;;;;;2.30;99.90;;;;;;5055861;28;19926;-53
2023/01/18 04:30:33;;;;;;;;;;;2.20;99.90;;;;;;5056239;28;19931;-52
2023/01/18 04:33:00;;;;;;;;;;;2.10;99.90;;;;;;5056817;28;19927;-51
2023/01/18 04:35:27;;;;;;;;;;;2.30;99.90;;;;;;5057080;28;19921;-54
2023/01/18 04:37:54;;;;;;;;;;;2.30;99.90;;;;;;5057236;28;19920;-54
2023/01/18 04:40:22;;;;;;;;;;;2.40;99.90;;;;;;5056274;28;19963;-49
2023/01/18 04:42:53;;;;;;;;;;;2.50;99.90;;;;;;5056825;28;19942;-52
2023/01/18 04:45:20;;;;;;;;;;;2.50;99.90;;;;;;5055876;28;19925;-51
2023/01/18 04:47:47;;;;;;;;;;;2.50;99.90;;;;;;5054634;28;20316;-50
2023/01/18 04:50:14;;;;;;;;;;;2.50;99.90;;;;;;5055414;28;20311;-51
2023/01/18 04:52:41;;;;;;;;;;;2.30;99.90;;;;;;5055213;28;19927;-51
2023/01/18 04:55:09;;;;;;;;;;;2.20;99.90;;;;;;5055395;28;20363;-53
2023/01/18 04:57:37;;;;;;;;;;;2.20;99.90;;;;;;5055876;28;19920;-50
2023/01/18 05:00:06;;;;;;;;;;;2.30;99.90;;;;;;5055868;28;19967;-51
2023/01/18 05:02:32;;;;;;;;;;;2.30;99.90;;;;;;5055692;28;19967;-52
2023/01/18 05:04:59;;;;;;;;;;;2.20;99.90;;;;;;5055217;28;19939;-50
2023/01/18 05:07:29;;;;;;;;;;;2.00;99.90;;;;;;5056197;28;19924;-52
2023/01/18 05:09:56;;;;;;;;;;;2.10;99.90;;;;;;5056596;28;19920;-49
2023/01/18 05:12:23;;;;;;;;;;;2.30;99.90;;;;;;5056035;28;19920;-46
2023/01/18 05:14:51;;;;;;;;;;;2.50;99.90;;;;;;5056339;28;20176;-53
2023/01/18 05:17:18;;;;;;;;;;;2.50;99.90;;;;;;5056173;28;19929;-50
2023/01/18 05:19:45;;;;;;;;;;;2.40;99.90;;;;;;5056077;28;19921;-51
2023/01/18 05:22:12;;;;;;;;;;;2.30;99.90;;;;;;5055756;28;19928;-49
2023/01/18 05:24:39;;;;;;;;;;;2.30;99.90;;;;;;5056056;28;19925;-47
2023/01/18 05:27:06;;;;;;;;;;;2.10;99.90;;;;;;5056152;28;19921;-49
2023/01/18 05:29:33;;;;;;;;;;;2.00;99.90;;;;;;5055716;28;20019;-51
2023/01/18 05:32:01;;;;;;;;;;;2.00;99.90;;;;;;5056037;28;19925;-50
2023/01/18 05:34:28;;;;;;;;;;;2.00;99.90;;;;;;5054219;28;19921;-47
2023/01/18 05:36:55;;;;;;;;;;;1.90;99.90;;;;;;5055061;28;20002;-49
2023/01/18 05:39:22;;;;;;;;;;;1.90;99.90;;;;;;5055376;28;19921;-47
2023/01/18 05:41:49;;;;;;;;;;;2.00;99.90;;;;;;5054111;28;19920;-51
2023/01/18 05:44:16;;;;;;;;;;;1.90;99.90;;;;;;5055802;28;19920;-48
2023/01/18 05:46:43;;;;;;;;;;;1.80;99.90;;;;;;5055779;28;19927;-48
2023/01/18 05:49:11;;;;;;;;;;;1.70;99.90;;;;;;5058491;28;20042;-50
2023/01/18 05:51:38;;;;;;;;;;;1.70;99.90;;;;;;5060182;28;20023;-48
2023/01/18 05:54:05;;;;;;;;;;;1.90;99.90;;;;;;5060107;28;19920;-49
2023/01/18 05:56:32;;;;;;;;;;;2.20;99.90;;;;;;5057929;28;19920;-51
2023/01/18 05:58:59;;;;;;;;;;;2.10;99.90;;;;;;5059097;28;20240;-48
2023/01/18 06:01:26;;;;;;;;;;;2.10;99.90;;;;;;5058954;28;19921;-49
2023/01/18 06:03:53;;;;;;;;;;;1.90;99.90;;;;;;5058092;28;20236;-49
2023/01/18 06:06:21;;;;;;;;;;;1.90;99.90;;;;;;5057899;28;19921;-50
2023/01/18 06:08:48;;;;;;;;;;;2.10;99.90;;;;;;5058684;28;19998;-49
2023/01/18 06:11:15;;;;;;;;;;;2.20;99.90;;;;;;5056258;28;19920;-51
2023/01/18 06:13:42;;;;;;;;;;;2.40;99.90;;;;;;5057192;28;19927;-51
2023/01/18 06:16:09;;;;;;;;;;;2.10;99.90;;;;;;5056786;28;19921;-46
2023/01/18 06:18:38;;;;;;;;;;;2.00;99.90;;;;;;5055208;28;19952;-48
2023/01/18 06:21:06;;;;;;;;;;;2.10;99.90;;;;;;5056498;28;20272;-48
2023/01/18 06:23:35;;;;;;;;;;;2.10;99.90;;;;;;5056110;28;19921;-48
2023/01/18 06:26:01;;;;;;;;;;;2.10;99.90;;;;;;5058433;28;19924;-50
2023/01/18 06:28:28;;;;;;;;;;;2.00;99.90;;;;;;5058508;28;20265;-47
2023/01/18 06:30:55;;;;;;;;;;;2.10;99.90;;;;;;5056622;28;20189;-51
2023/01/18 06:33:22;;;;;;;;;;;2.20;99.90;;;;;;5058557;28;19921;-48
2023/01/18 06:35:49;;;;;;;;;;;2.20;99.90;;;;;;5058094;28;20027;-48
2023/01/18 06:38:16;;;;;;;;;;;2.00;99.90;;;;;;5056665;28;19971;-49
2023/01/18 06:40:45;;;;;;;;;;;1.90;99.90;;;;;;5057507;28;19964;-49
2023/01/18 06:43:12;;;;;;;;;;;1.90;99.90;;;;;;5058601;28;19920;-49
2023/01/18 06:45:39;;;;;;;;;;;1.90;99.90;;;;;;5056204;28;20019;-51
2023/01/18 06:48:06;;;;;;;;;;;1.80;99.90;;;;;;5057967;28;19924;-49
2023/01/18 06:50:33;;;;;;;;;;;1.70;99.90;;;;;;5057790;28;20021;-47
2023/01/18 06:53:00;;;;;;;;;;;1.70;99.90;;;;;;5055997;28;19925;-48
2023/01/18 06:55:27;;;;;;;;;;;1.90;99.90;;;;;;5057320;28;19962;-50
2023/01/18 06:57:55;;;;;;;;;;;2.00;99.90;;;;;;5055819;28;19921;-48
2023/01/18 07:00:23;;;;;;;;;;;1.80;99.90;;;;;;5054843;28;20233;-48
2023/01/18 07:02:51;;;;;;;;;;;1.80;99.90;;;;;;5056760;28;19921;-46
2023/01/18 07:05:18;;;;;;;;;;;1.90;99.90;;;;;;5056586;28;19921;-51
2023/01/18 07:07:45;;;;;;;;;;;1.90;99.90;;;;;;5055899;28;19927;-44
2023/01/18 07:10:12;;;;;;;;;;;2.10;99.90;;;;;;5054989;28;20165;-47
2023/01/18 07:12:39;;;;;;;;;;;2.10;99.90;;;;;;5056749;28;19959;-45
2023/01/18 07:15:09;;;;;;;;;;;2.10;99.90;;;;;;5057085;28;19978;-49
2023/01/18 07:17:37;;;;;;;;;;;2.20;99.90;;;;;;5056324;28;19921;-49
2023/01/18 07:20:05;;;;;;;;;;;2.30;99.90;;;;;;5055169;28;19927;-50
2023/01/18 07:22:31;;;;;;;;;;;2.10;99.90;;;;;;5063418;28;19966;-47
2023/01/18 07:24:59;;;;;;;;;;;2.10;99.90;;;;;;5075969;28;19935;-51
2023/01/18 07:27:27;;;;;;;;;;;1.90;99.90;;;;;;5077167;28;19927;-49
2023/01/18 07:29:54;;;;;;;;;;;1.90;99.90;;;;;;5075561;28;19924;-49
2023/01/18 07:32:22;;;;;;;;;;;2.10;99.90;;;;;;5075436;28;20006;-48
2023/01/18 07:34:49;;;;;;;;;;;2.30;99.90;;;;;;5075287;28;19955;-51
2023/01/18 07:37:16;;;;;;;;;;;2.20;99.90;;;;;;5075520;28;19925;-50
2023/01/18 07:39:43;;;;;;;;;;;2.10;99.90;;;;;;5073805;28;19928;-50
2023/01/18 07:42:11;;;;;;;;;;;2.00;99.90;;;;;;5060797;28;20335;-50
2023/01/18 07:44:38;;;;;;;;;;;2.10;99.90;;;;;;5055421;28;20236;-48
2023/01/18 07:47:06;;;;;;;;;;;2.40;99.90;;;;;;5055978;28;19925;-51
2023/01/18 07:49:35;;;;;;;;;;;2.50;99.90;;;;;;5069006;28;19920;-49
2023/01/18 07:52:02;;;;;;;;;;;2.60;99.90;;;;;;5072105;28;19920;-47
2023/01/18 07:54:28;;;;;;;;;;;2.70;99.90;;;;;;5073123;28;19973;-47
2023/01/18 07:56:55;;;;;;;;;;;2.60;99.90;;;;;;5067950;28;19921;-52
2023/01/18 07:59:22;;;;;;;;;;;2.60;99.90;;;;;;5061031;28;19927;-50
2023/01/18 08:01:49;;;;;;;;;;;2.80;99.90;;;;;;5065037;28;19962;-49
2023/01/18 08:04:16;;;;;;;;;;;3.10;99.90;;;;;;5074439;28;19945;-48
2023/01/18 08:06:45;;;;;;;;;;;2.90;99.90;;;;;;5075568;28;19924;-48
2023/01/18 08:09:12;;;;;;;;;;;3.00;99.90;;;;;;5075665;28;20337;-49
2023/01/18 08:11:39;;;;;;;;;;;2.90;99.90;;;;;;5073121;28;20246;-52
2023/01/18 08:14:06;;;;;;;;;;;3.00;99.90;;;;;;5074402;28;19924;-51
2023/01/18 08:16:33;;;;;;;;;;;2.70;99.90;;;;;;5074182;28;19927;-50
2023/01/18 08:19:01;;;;;;;;;;;2.50;99.90;;;;;;5074513;28;20219;-53
2023/01/18 08:21:30;;;;;;;;;;;2.40;99.90;;;;;;5036934;28;20271;-51
2023/01/18 08:23:58;;;;;;;;;;;2.20;99.90;;;;;;5054623;28;19974;-55
2023/01/18 08:26:25;;;;;;;;;;;2.30;99.90;;;;;;5055968;28;20007;-53
2023/01/18 08:28:52;;;;;;;;;;;2.50;99.90;;;;;;5055553;28;19960;-51
2023/01/18 08:31:20;;;;;;;;;;;3.00;99.90;;;;;;5068383;28;20072;-54
2023/01/18 08:33:49;;;;;;;;;;;2.40;99.90;;;;;;5071588;28;20003;-52
2023/01/18 08:36:17;;;;;;;;;;;2.80;99.90;;;;;;5073425;28;19920;-55
2023/01/18 08:38:47;;;;;;;;;;;2.70;99.90;;;;;;5074292;28;19920;-55
2023/01/18 08:41:15;;;;;;;;;;;2.80;99.90;;;;;;5072251;28;19952;-57
2023/01/18 08:43:43;;;;;;;;;;;3.00;99.90;;;;;;5073720;28;19920;-56
2023/01/18 08:46:09;;;;;;;;;;;3.20;99.90;;;;;;5072730;28;19921;-51
2023/01/18 08:48:36;;;;;;;;;;;3.20;99.90;;;;;;5051999;28;20477;-53
2023/01/18 08:51:04;;;;;;;;;;;3.30;99.90;;;;;;5070773;28;20194;-55
2023/01/18 08:53:31;;;;;;;;;;;3.20;99.90;;;;;;5070216;28;19926;-55
2023/01/18 08:55:58;;;;;;;;;;;2.60;99.90;;;;;;5065541;28;19925;-53
2023/01/18 08:58:27;;;;;;;;;;;2.40;99.90;;;;;;5072158;28;19956;-54
2023/01/18 09:00:53;;;;;;;;;;;2.10;99.90;;;;;;5071306;28;19934;-56
2023/01/18 09:03:21;;;;;;;;;;;2.50;99.90;;;;;;5072363;28;20289;-55
2023/01/18 09:05:48;;;;;;;;;;;2.70;99.90;;;;;;5072041;28;19928;-58
2023/01/18 09:08:16;;;;;;;;;;;2.80;99.90;;;;;;5072429;28;19920;-56
2023/01/18 09:10:43;;;;;;;;;;;2.90;99.90;;;;;;5058659;28;20840;-55
2023/01/18 09:13:10;;;;;;;;;;;3.10;99.90;;;;;;5055407;28;20328;-56
2023/01/18 09:15:38;;;;;;;;;;;3.20;99.90;;;;;;5055034;28;19947;-51
2023/01/18 09:18:07;;;;;;;;;;;3.40;99.90;;;;;;5053877;28;19921;-55
2023/01/18 09:20:35;;;;;;;;;;;3.60;99.90;;;;;;5053459;28;19927;-57
2023/01/18 09:23:06;;;;;;;;;;;3.70;99.90;;;;;;5054314;28;19921;-56
2023/01/18 09:25:33;;;;;;;;;;;3.80;99.90;;;;;;5053646;28;19924;-53
2023/01/18 09:28:01;;;;;;;;;;;4.10;99.90;;;;;;5053655;28;20216;-56
2023/01/18 09:30:28;;;;;;;;;;;4.30;99.90;;;;;;5053326;28;19973;-54
2023/01/18 09:32:57;;;;;;;;;;;4.00;99.90;;;;;;5071351;28;19951;-56
2023/01/18 09:35:24;;;;;;;;;;;4.00;99.90;;;;;;5073388;28;19920;-57
2023/01/18 09:37:51;;;;;;;;;;;3.70;99.90;;;;;;5071160;28;19943;-56
2023/01/18 09:40:19;;;;;;;;;;;3.70;99.90;;;;;;5070400;28;19924;-57
2023/01/18 09:42:47;;;;;;;;;;;3.60;99.90;;;;;;5064102;28;20264;-56
2023/01/18 09:45:22;;;;;;;;;;;3.60;99.90;;;;;;5054811;28;20007;-57
2023/01/18 09:47:52;;;;;;;;;;;3.60;99.90;;;;;;5063916;28;20006;-55
2023/01/18 09:50:21;;;;;;;;;;;3.80;99.90;;;;;;5072979;28;19924;-55
2023/01/18 09:52:51;;;;;;;;;;;3.60;99.90;;;;;;5068323;28;20304;-55
2023/01/18 09:55:22;;;;;;;;;;;3.70;99.90;;;;;;5073410;28;19920;-56
2023/01/18 09:57:59;;;;;;;;;;;3.80;99.90;;;;;;5074325;28;19920;-56
2023/01/18 10:00:27;;;;;;;;;;;3.70;99.90;;;;;;5073214;28;19924;-60
2023/01/18 10:02:55;;;;;;;;;;;3.50;99.90;;;;;;5071672;28;19920;-57
2023/01/18 10:05:26;;;;;;;;;;;3.40;99.90;;;;;;5055878;28;19927;-54
2023/01/18 10:08:02;;;;;;;;;;;3.60;99.90;;;;;;5059567;28;20280;-56
2023/01/18 10:10:32;;;;;;;;;;;3.30;99.90;;;;;;5071230;28;20345;-58
2023/01/18 10:13:05;;;;;;;;;;;2.80;99.90;;;;;;5052547;28;19928;-57
2023/01/18 10:15:35;;;;;;;;;;;2.80;99.90;;;;;;5051551;28;19931;-57
2023/01/18 10:18:02;;;;;;;;;;;3.00;99.90;;;;;;5052601;28;20311;-56
2023/01/18 10:20:35;;;;;;;;;;;2.90;99.90;;;;;;5065541;28;19926;-56
2023/01/18 10:23:04;;;;;;;;;;;2.70;99.90;;;;;;5065700;28;19920;-57
2023/01/18 10:25:32;;;;;;;;;;;2.80;99.90;;;;;;5056465;28;20247;-58
2023/01/18 10:28:08;;;;;;;;;;;3.30;99.90;;;;;;5073183;28;20223;-58
2023/01/18 10:30:42;;;;;;;;;;;3.40;99.90;;;;;;5072029;28;20200;-56
2023/01/18 10:33:14;;;;;;;;;;;3.50;99.90;;;;;;5071244;28;19987;-57
2023/01/18 10:35:44;;;;;;;;;;;3.60;99.90;;;;;;5072902;28;19934;-55
2023/01/18 10:38:13;;;;;;;;;;;3.50;99.90;;;;;;5075527;28;20031;-55
2023/01/18 10:40:40;;;;;;;;;;;3.60;99.90;;;;;;5073961;28;20084;-57
2023/01/18 10:43:11;;;;;;;;;;;3.80;99.90;;;;;;5076007;28;20183;-58
2023/01/18 10:45:37;;;;;;;;;;;4.10;99.90;;;;;;5062954;28;20318;-55
2023/01/18 10:48:18;;;;;;;;;;;4.50;99.90;;;;;;5056240;28;19921;-56
2023/01/18 10:50:47;;;;;;;;;;;4.10;99.90;;;;;;5055511;28;19920;-56
2023/01/18 10:53:21;;;;;;;;;;;4.20;99.90;;;;;;5060586;28;19926;-56
2023/01/18 10:55:53;;;;;;;;;;;4.50;99.90;;;;;;5077783;28;19924;-57
2023/01/18 10:58:24;;;;;;;;;;;4.40;99.90;;;;;;5075247;28;19924;-55
2023/01/18 11:00:53;;;;;;;;;;;4.30;99.90;;;;;;5075300;28;19924;-56
2023/01/18 11:03:20;;;;;;;;;;;4.40;99.90;;;;;;5074738;28;19930;-54
2023/01/18 11:05:49;;;;;;;;;;;3.60;99.90;;;;;;5073648;28;20247;-57
2023/01/18 11:08:21;;;;;;;;;;;3.40;99.90;;;;;;5062984;28;20067;-55
2023/01/18 11:10:57;;;;;;;;;;;3.40;99.90;;;;;;5068105;28;19924;-57
2023/01/18 11:13:25;;;;;;;;;;;3.40;99.90;;;;;;5071946;28;19920;-55
2023/01/18 11:16:12;;;;;;;;;;;3.20;99.90;;;;;;5074825;28;19921;-54
2023/01/18 11:18:54;;;;;;;;;;;3.10;99.90;;;;;;5054326;28;20089;-54
2023/01/18 11:21:23;;;;;;;;;;;3.10;99.90;;;;;;5054871;28;19967;-55
2023/01/18 11:23:50;;;;;;;;;;;3.00;99.90;;;;;;5069936;28;19953;-55
2023/01/18 11:26:18;;;;;;;;;;;2.90;99.90;;;;;;5062398;28;19924;-56
2023/01/18 11:28:48;;;;;;;;;;;3.00;99.90;;;;;;5055665;28;20024;-55
2023/01/18 11:31:16;;;;;;;;;;;2.90;99.90;;;;;;5060216;28;20335;-55
2023/01/18 11:33:50;;;;;;;;;;;3.00;99.90;;;;;;5057319;28;20019;-57
2023/01/18 11:36:19;;;;;;;;;;;3.10;99.90;;;;;;5069427;28;19927;-54
2023/01/18 11:38:47;;;;;;;;;;;3.30;99.90;;;;;;5072663;28;19925;-57
2023/01/18 11:41:16;;;;;;;;;;;2.90;99.90;;;;;;5070340;28;19921;-57
2023/01/18 11:44:01;;;;;;;;;;;2.90;99.90;;;;;;5074274;28;19931;-57
2023/01/18 11:46:34;;;;;;;;;;;2.90;99.90;;;;;;5073754;28;19982;-57
2023/01/18 11:49:07;;;;;;;;;;;3.00;99.90;;;;;;5072140;28;19943;-56
2023/01/18 11:51:38;;;;;;;;;;;2.90;99.90;;;;;;5072345;28;19931;-57
2023/01/18 11:54:25;;;;;;;;;;;3.00;99.90;;;;;;5075626;28;19966;-55
2023/01/18 11:56:55;;;;;;;;;;;3.20;99.90;;;;;;5073066;28;19920;-60
2023/01/18 11:59:24;;;;;;;;;;;3.30;99.90;;;;;;5074520;28;20339;-56
2023/01/18 12:02:12;;;;;;;;;;;3.30;99.90;;;;;;5073378;28;19920;-56
2023/01/18 12:04:45;;;;;;;;;;;3.30;99.90;;;;;;5050744;28;19952;-55
2023/01/18 12:07:18;;;;;;;;;;;3.50;99.90;;;;;;5069418;28;20227;-56
2023/01/18 12:09:51;;;;;;;;;;;3.40;99.90;;;;;;5056623;28;20299;-58
2023/01/18 12:12:23;;;;;;;;;;;3.40;99.90;;;;;;5063225;28;19920;-58
2023/01/18 12:14:58;;;;;;;;;;;3.30;99.90;;;;;;5065521;28;19935;-58
2023/01/18 12:17:36;;;;;;;;;;;3.00;99.90;;;;;;5069559;28;20122;-58
2023/01/18 12:20:14;;;;;;;;;;;3.00;99.90;;;;;;5067904;28;19982;-59
2023/01/18 12:22:50;;;;;;;;;;;3.00;99.90;;;;;;5055335;28;19964;-56
2023/01/18 12:25:36;;;;;;;;;;;3.10;99.90;;;;;;5060067;28;19927;-57
2023/01/18 12:28:06;;;;;;;;;;;3.60;99.90;;;;;;5059269;28;19921;-58
2023/01/18 12:30:43;;;;;;;;;;;3.60;99.90;;;;;;5056750;28;19948;-57
2023/01/18 12:33:17;;;;;;;;;;;3.70;99.90;;;;;;5064660;28;20420;-57
2023/01/18 12:35:50;;;;;;;;;;;3.60;99.90;;;;;;5058933;28;20251;-57
2023/01/18 12:38:21;;;;;;;;;;;3.60;99.90;;;;;;5072874;28;20015;-57
2023/01/18 12:40:59;;;;;;;;;;;3.40;99.90;;;;;;5062896;28;19920;-54
2023/01/18 12:43:32;;;;;;;;;;;3.20;99.90;;;;;;5067932;28;19924;-55
2023/01/18 12:46:03;;;;;;;;;;;3.40;99.90;;;;;;5062908;28;20471;-57
2023/01/18 12:48:30;;;;;;;;;;;3.20;99.90;;;;;;5068116;28;20007;-57
2023/01/18 12:50:59;;;;;;;;;;;3.00;99.90;;;;;;5074724;28;20010;-55
2023/01/18 12:53:31;;;;;;;;;;;2.80;99.90;;;;;;5071404;28;20336;-56
2023/01/18 12:56:03;;;;;;;;;;;2.80;99.90;;;;;;5062959;28;20011;-56
2023/01/18 12:58:30;;;;;;;;;;;3.00;99.90;;;;;;5062103;28;20335;-57
2023/01/18 13:00:58;;;;;;;;;;;2.90;99.90;;;;;;5053261;28;19955;-56
2023/01/18 13:03:28;;;;;;;;;;;3.00;99.90;;;;;;5056188;28;20019;-57
2023/01/18 13:05:56;;;;;;;;;;;3.30;99.90;;;;;;5064981;28;19959;-56
2023/01/18 13:08:38;;;;;;;;;;;3.30;99.90;;;;;;5065045;28;20175;-57
2023/01/18 13:11:09;;;;;;;;;;;3.50;99.90;;;;;;5059202;28;19951;-54
2023/01/18 13:13:36;;;;;;;;;;;3.50;99.90;;;;;;5056852;28;20011;-56
2023/01/18 13:16:09;;;;;;;;;;;3.60;99.90;;;;;;5082107;28;19927;-53
2023/01/18 13:18:41;;;;;;;;;;;3.60;99.90;;;;;;5085738;28;20208;-55
2023/01/18 13:21:11;;;;;;;;;;;3.70;99.90;;;;;;5091182;28;19973;-56
2023/01/18 13:23:44;;;;;;;;;;;3.70;99.90;;;;;;5065050;28;20002;-55
2023/01/18 13:26:20;;;;;;;;;;;3.70;99.90;;;;;;5054965;28;20003;-55
2023/01/18 13:28:47;;;;;;;;;;;3.70;99.90;;;;;;5068081;28;19948;-54
2023/01/18 13:31:14;;;;;;;;;;;3.40;99.90;;;;;;5065491;28;19930;-56
2023/01/18 13:33:43;;;;;;;;;;;3.40;99.90;;;;;;5060942;28;20031;-56
2023/01/18 13:36:12;;;;;;;;;;;3.40;99.90;;;;;;5063430;28;19928;-56
2023/01/18 13:38:48;;;;;;;;;;;3.40;99.90;;;;;;5065129;28;19921;-57
2023/01/18 13:41:15;;;;;;;;;;;3.10;99.90;;;;;;5077247;28;20296;-56
2023/01/18 13:44:03;;;;;;;;;;;2.90;99.90;;;;;;5058002;28;19950;-57
2023/01/18 13:46:32;;;;;;;;;;;3.00;99.90;;;;;;5059569;28;19955;-55
2023/01/18 13:49:01;;;;;;;;;;;2.90;99.90;;;;;;5084753;28;20026;-55
2023/01/18 13:51:50;;;;;;;;;;;2.80;99.90;;;;;;5080474;28;20212;-56
2023/01/18 13:54:18;;;;;;;;;;;3.00;99.90;;;;;;5061974;28;19921;-56
2023/01/18 13:57:00;;;;;;;;;;;3.10;99.90;;;;;;5058658;28;20012;-58
2023/01/18 13:59:29;;;;;;;;;;;3.10;99.90;;;;;;5052184;28;19924;-58
2023/01/18 14:02:05;;;;;;;;;;;3.10;99.90;;;;;;5069524;28;20015;-59
2023/01/18 14:04:33;;;;;;;;;;;3.10;99.90;;;;;;5066863;28;20015;-58
2023/01/18 14:07:02;;;;;;;;;;;3.20;99.90;;;;;;5083774;28;20053;-57
2023/01/18 14:09:32;;;;;;;;;;;3.30;99.90;;;;;;5093929;28;20382;-58
2023/01/18 14:11:59;;;;;;;;;;;3.30;99.90;;;;;;5089754;28;19924;-58
2023/01/18 14:14:29;;;;;;;;;;;3.20;99.90;;;;;;5054838;28;19921;-58
2023/01/18 14:16:58;;;;;;;;;;;3.10;99.90;;;;;;5056095;28;19929;-58
2023/01/18 14:19:26;;;;;;;;;;;3.00;99.90;;;;;;5055132;28;19931;-58
2023/01/18 14:21:59;;;;;;;;;;;3.00;99.90;;;;;;5057128;28;19920;-58
2023/01/18 14:24:31;;;;;;;;;;;3.00;99.90;;;;;;5058666;28;20015;-58
2023/01/18 14:26:59;;;;;;;;;;;2.80;99.90;;;;;;5058370;28;19920;-58
2023/01/18 14:29:32;;;;;;;;;;;2.80;99.90;;;;;;5059791;28;19927;-58
2023/01/18 14:32:00;;;;;;;;;;;2.60;99.90;;;;;;5077350;28;19920;-58
2023/01/18 14:34:37;;;;;;;;;;;2.60;99.90;;;;;;5093984;28;19926;-58
2023/01/18 14:37:23;;;;;;;;;;;2.60;99.90;;;;;;5066510;28;19955;-58
2023/01/18 14:40:02;;;;;;;;;;;2.70;99.90;;;;;;5089128;28;19925;-58
2023/01/18 14:42:33;;;;;;;;;;;2.80;99.90;;;;;;5066563;28;20008;-56
2023/01/18 14:45:02;;;;;;;;;;;2.70;99.90;;;;;;5055495;28;20015;-60
2023/01/18 14:47:30;;;;;;;;;;;2.60;99.90;;;;;;5061786;28;19952;-57
2023/01/18 14:49:58;;;;;;;;;;;2.80;99.90;;;;;;5075165;28;20082;-58
2023/01/18 14:52:27;;;;;;;;;;;2.70;99.90;;;;;;5064314;28;19927;-58
2023/01/18 14:54:55;;;;;;;;;;;2.80;99.90;;;;;;5060193;28;20270;-58
2023/01/18 14:57:23;;;;;;;;;;;2.90;99.90;;;;;;5093749;28;20197;-58
2023/01/18 14:59:51;;;;;;;;;;;3.00;99.90;;;;;;5092289;28;19920;-59
2023/01/18 15:02:23;;;;;;;;;;;3.00;99.90;;;;;;5093176;28;20328;-58
2023/01/18 15:04:51;;;;;;;;;;;2.80;99.90;;;;;;5093826;28;20085;-58
2023/01/18 15:07:19;;;;;;;;;;;2.90;99.90;;;;;;5070563;28;20013;-58
2023/01/18 15:09:46;;;;;;;;;;;2.80;99.90;;;;;;5057505;28;19920;-58
2023/01/18 15:12:16;;;;;;;;;;;3.00;99.90;;;;;;5056680;28;20071;-59
2023/01/18 15:14:44;;;;;;;;;;;2.80;99.90;;;;;;5063787;28;19921;-59
2023/01/18 15:17:12;;;;;;;;;;;2.80;99.90;;;;;;5054713;28;19956;-58